METAR Data
IDs: Format: Raw Decoded Include TAF

Data at: 2128 UTC 18 Apr 2021

METAR for:KVCT (Victoria Rgnl, TX, US)
Text:KVCT 182051Z 01013KT 10SM BKN120 21/07 A3006 RMK AO2 SLP177 T02060067 56024
Temperature: 20.6°C ( 69°F)
Dewpoint: 6.7°C ( 44°F) [RH = 40%]
Pressure (altimeter):30.06 inches Hg (1018.0 mb) [Sea level pressure: 1017.7 mb]
Winds:from the N (10 degrees) at 15 MPH (13 knots; 6.7 m/s)
Visibility:10 or more sm (16+ km)
Ceiling:12000 feet AGL
Clouds: broken clouds at 12000 feet AGL